Acushnet, Massachusetts
Current Conditions -  °F | °C
As of 3:53 AM on Sunday 23 Nov 2014 (Local Time) from KEWB Reporting Station
Overcast Overcast  
Wind Chill: 41°   Ceiling: 7500
Heat Index: 46°   Visibility: 10mi
Dew Point: 29°   Wind: 10mph
Humidity: 51%   Direction: 240°WSW
Pressure: 30.12"   Gusts: NA
Location:  41.68°N, 70.91°W
Report Text: KEWB 230853Z AUTO 24009KT 10SM SCT060 OVC075 08/M02 A3012 RMK AO2 SLP200 T00781017 53006
Loading
Personal Weather Stations






























Interactive Weather Map New forecast layout! Learn more

10-Day Weather Forecast

Advertisements
Track Severe Weather on mobile